Ballerina — SKNY — position and weather

sailwx.info

Track history (hours):
 
Tides and Currents Weather Stations Pressure Air Temp Water Temp Dewpoint Dewpoint Depression Visibility Wind Speed Wind Dir Waves Ship Positions

Ballerina

Last reported at 2017-Aug-17 16:58 UTC. Time now 2017-Aug-17 17:26 UTC.
Position N 59°20' E 018°05'.

Type: Passenger vessel. MMSI: 265550720.

Date/timePositionNaut miles runAvg speedWind from/ knotsBaromVisibWave heightAir tempDewpointWater temp
2017-Aug-17 16:58N 59°20' E 018°05'2 3.6
2017-Aug-17 16:30N 59°19' E 018°08'1 2.2
2017-Aug-17 16:00N 59°19' E 018°06'0 0.6
2017-Aug-17 15:29N 59°19' E 018°06'2 3.6
2017-Aug-17 15:00N 59°20' E 018°10'0 0.9
2017-Aug-17 14:29N 59°19' E 018°10'2 3.9
2017-Aug-17 13:58N 59°19' E 018°06'1 1.4
2017-Aug-17 13:30N 59°19' E 018°06'1 2.2
2017-Aug-17 12:54N 59°20' E 018°05'0 0.6
2017-Aug-17 12:27N 59°20' E 018°05'0 0.0
2017-Aug-17 11:58N 59°20' E 018°05'1 3.1
2017-Aug-17 11:31N 59°19' E 018°07'0 0.2
2017-Aug-17 11:00N 59°19' E 018°07'1 2.1
2017-Aug-17 10:30N 59°19' E 018°06'2 3.7
2017-Aug-17 09:59N 59°19' E 018°09'2 3.9
2017-Aug-17 09:30N 59°19' E 018°06'0 0.9
2017-Aug-17 09:00N 59°19' E 018°06'1 2.9
2017-Aug-17 08:30N 59°19' E 018°09'2 4.3
2017-Aug-17 07:56N 59°20' E 018°05'0 0.0
2017-Aug-16 16:53N 59°20' E 018°05'2 4.6
2017-Aug-16 16:29N 59°19' E 018°08'1 2.7
2017-Aug-16 16:01N 59°19' E 018°06'0 0.2
2017-Aug-16 15:30N 59°19' E 018°06'2 4.0
2017-Aug-16 15:01N 59°19' E 018°10'0 0.1
2017-Aug-16 14:30N 59°19' E 018°10'2 3.9
2017-Aug-16 13:59N 59°19' E 018°06'1 1.5
2017-Aug-16 13:29N 59°19' E 018°07'1 2.8
2017-Aug-16 12:58N 59°20' E 018°05'0 0.5
2017-Aug-16 12:28N 59°20' E 018°05'0 0.0
2017-Aug-16 11:57N 59°20' E 018°05'1 3.3
2017-Aug-16 11:30N 59°19' E 018°07'0 0.1
2017-Aug-16 10:58N 59°19' E 018°07'2 3.7
2017-Aug-16 10:30N 59°20' E 018°05'2 4.5
2017-Aug-16 10:00N 59°19' E 018°09'2 3.1
2017-Aug-16 09:30N 59°19' E 018°06'0 0.5
2017-Aug-16 09:00N 59°19' E 018°06'2 3.7
2017-Aug-16 08:30N 59°19' E 018°09'2 4.1
2017-Aug-16 07:54N 59°20' E 018°05'0 0.6
2017-Aug-16 07:25N 59°20' E 018°05'0 0.0
2017-Aug-16 06:55N 59°20' E 018°05'0 0.0
2017-Aug-16 06:25N 59°20' E 018°05'0 0.0
2017-Aug-15 17:39N 59°20' E 018°05'0 0.0
2017-Aug-15 17:27N 59°20' E 018°05'0 0.0
2017-Aug-15 16:54N 59°20' E 018°05'2 4.4
2017-Aug-15 16:30N 59°19' E 018°08'1 2.4
2017-Aug-15 16:00N 59°19' E 018°06'0 0.3
2017-Aug-15 15:29N 59°19' E 018°06'2 3.8
2017-Aug-15 15:00N 59°20' E 018°09'0 0.7
2017-Aug-15 14:29N 59°19' E 018°10'2 4.0
2017-Aug-15 13:59N 59°19' E 018°06'1 1.2
2017-Aug-15 13:30N 59°19' E 018°06'1 2.6
2017-Aug-15 12:59N 59°20' E 018°05'0 0.5
2017-Aug-15 12:25N 59°20' E 018°05'0 0.0
2017-Aug-15 11:58N 59°20' E 018°05'2 3.2
2017-Aug-15 11:29N 59°19' E 018°07'0 0.0
2017-Aug-15 10:59N 59°19' E 018°07'2 3.5
2017-Aug-15 10:30N 59°20' E 018°05'2 4.8
2017-Aug-15 10:00N 59°19' E 018°09'2 3.4
2017-Aug-15 09:28N 59°19' E 018°06'0 1.1
2017-Aug-15 09:00N 59°19' E 018°06'1 2.8
2017-Aug-15 08:29N 59°19' E 018°09'2 4.7
2017-Aug-15 07:58N 59°20' E 018°05'0 0.4
2017-Aug-15 07:19N 59°20' E 018°05'0 0.1
2017-Aug-15 06:58N 59°20' E 018°05'0 0.0
2017-Aug-15 06:28N 59°20' E 018°05'0 0.0
2017-Aug-15 05:58N 59°20' E 018°05'0 0.0
2017-Aug-15 05:28N 59°20' E 018°05'0 0.0
2017-Aug-15 04:58N 59°20' E 018°05'0 0.0
2017-Aug-15 04:28N 59°20' E 018°05'0 0.0
2017-Aug-15 03:58N 59°20' E 018°05'0 0.0
2017-Aug-15 03:28N 59°20' E 018°05'0 0.0
2017-Aug-15 02:46N 59°20' E 018°05'0 0.0
2017-Aug-15 02:28N 59°20' E 018°05'0 0.0
2017-Aug-15 01:58N 59°20' E 018°05'0 0.0
2017-Aug-15 01:28N 59°20' E 018°05'0 0.0
2017-Aug-15 00:58N 59°20' E 018°05'0 0.0
2017-Aug-15 00:28N 59°20' E 018°05'0 0.0
2017-Aug-14 23:58N 59°20' E 018°05'0 0.0
2017-Aug-14 23:28N 59°20' E 018°05'0 0.0
2017-Aug-14 22:58N 59°20' E 018°05'0 0.0
2017-Aug-14 22:28N 59°20' E 018°05'0 0.0
2017-Aug-14 21:58N 59°20' E 018°05'0 0.0
2017-Aug-14 21:28N 59°20' E 018°05'0 0.0
2017-Aug-14 20:58N 59°20' E 018°05'0 0.0
2017-Aug-14 20:28N 59°20' E 018°05'0 0.0
2017-Aug-14 19:58N 59°20' E 018°05'0 0.0
2017-Aug-14 19:28N 59°20' E 018°05'0 0.0
2017-Aug-14 18:58N 59°20' E 018°05'0 0.0
2017-Aug-14 18:28N 59°20' E 018°05'0 0.0
2017-Aug-14 17:52N 59°20' E 018°05'0 0.0
2017-Aug-14 17:28N 59°20' E 018°05'0 0.0
2017-Aug-14 16:58N 59°20' E 018°05'2 3.2
2017-Aug-14 16:30N 59°19' E 018°08'1 2.0
2017-Aug-14 16:00N 59°19' E 018°06'0 0.2
2017-Aug-14 15:30N 59°19' E 018°06'2 3.8
2017-Aug-14 15:00N 59°20' E 018°09'1 1.0
2017-Aug-14 14:29N 59°19' E 018°10'2 4.1
2017-Aug-14 13:59N 59°19' E 018°06'1 1.1
2017-Aug-14 13:30N 59°19' E 018°06'1 2.3
2017-Aug-14 12:58N 59°20' E 018°05'0 0.5
2017-Aug-14 12:27N 59°20' E 018°05'0 0.0
2017-Aug-14 11:59N 59°20' E 018°05'2 3.2
2017-Aug-14 11:30N 59°19' E 018°07'0 0.1
2017-Aug-14 10:59N 59°19' E 018°07'2 3.1
2017-Aug-14 10:29N 59°20' E 018°05'2 4.5
2017-Aug-14 10:00N 59°19' E 018°09'2 3.3
2017-Aug-14 09:30N 59°19' E 018°06'1 1.2
2017-Aug-14 08:58N 59°19' E 018°07'1 2.8
2017-Aug-14 08:30N 59°19' E 018°09'2 2.0
2017-Aug-14 07:19N 59°20' E 018°05'0 0.8
2017-Aug-14 06:58N 59°20' E 018°05'0 0.0
2017-Aug-14 06:26N 59°20' E 018°05'0 0.0
2017-Aug-14 05:56N 59°20' E 018°05'0 0.0
2017-Aug-14 05:26N 59°20' E 018°05'0 0.0
2017-Aug-14 04:50N 59°20' E 018°05'0 0.0
2017-Aug-14 04:26N 59°20' E 018°05'0 0.0
2017-Aug-14 03:56N 59°20' E 018°05'0 0.0
2017-Aug-14 03:26N 59°20' E 018°05'0 0.0
2017-Aug-14 02:56N 59°20' E 018°05'0 0.0
2017-Aug-14 02:26N 59°20' E 018°05'0 0.0
2017-Aug-14 01:56N 59°20' E 018°05'0 0.0
2017-Aug-14 01:26N 59°20' E 018°05'0 0.0
2017-Aug-14 00:56N 59°20' E 018°05'0 0.0
2017-Aug-14 00:26N 59°20' E 018°05'0 0.0
2017-Aug-13 23:56N 59°20' E 018°05'0 0.0
2017-Aug-13 23:26N 59°20' E 018°05'0 0.0
2017-Aug-13 22:50N 59°20' E 018°05'0 0.0
2017-Aug-13 22:26N 59°20' E 018°05'0 0.0
2017-Aug-13 21:50N 59°20' E 018°05'0 0.0
2017-Aug-13 21:26N 59°20' E 018°05'0 0.0
2017-Aug-13 20:56N 59°20' E 018°05'0 0.0
2017-Aug-13 20:26N 59°20' E 018°05'0 0.0
2017-Aug-13 19:50N 59°20' E 018°05'0 0.0
2017-Aug-13 19:20N 59°20' E 018°05'0 0.0
2017-Aug-13 18:56N 59°20' E 018°05'0 0.0
2017-Aug-13 18:26N 59°20' E 018°05'0 0.0
2017-Aug-13 17:56N 59°20' E 018°05'0 0.0
2017-Aug-13 17:14N 59°20' E 018°05'0 0.0
2017-Aug-13 16:56N 59°20' E 018°05'0 0.7
2017-Aug-13 16:29N 59°20' E 018°05'2 4.3
2017-Aug-13 15:59N 59°19' E 018°09'2 3.8
2017-Aug-13 15:28N 59°19' E 018°06'0 0.8
2017-Aug-13 15:00N 59°19' E 018°06'2 3.6
2017-Aug-13 14:24N 59°21' E 018°09'2 3.9
2017-Aug-13 14:00N 59°19' E 018°08'2 3.9
2017-Aug-13 13:29N 59°20' E 018°05'2 4.0
2017-Aug-13 12:58N 59°19' E 018°08'2 4.3
2017-Aug-13 12:30N 59°20' E 018°05'0 0.5
2017-Aug-13 11:59N 59°20' E 018°05'1 1.3
2017-Aug-13 11:30N 59°19' E 018°06'2 4.2
2017-Aug-13 10:59N 59°21' E 018°09'2 3.4
2017-Aug-13 10:28N 59°19' E 018°07'2 3.3
2017-Aug-13 09:59N 59°20' E 018°05'2 4.7
2017-Aug-13 09:29N 59°19' E 018°09'2 3.8
2017-Aug-13 09:00N 59°19' E 018°06'0 0.6
2017-Aug-13 08:30N 59°19' E 018°06'2 4.3
2017-Aug-13 08:01N 59°21' E 018°09'2 3.3
2017-Aug-13 07:30N 59°19' E 018°08'2 3.1
2017-Aug-13 06:59N 59°20' E 018°05'0 0.0
2017-Aug-13 06:25N 59°20' E 018°05'0 0.0
2017-Aug-12 17:02N 59°20' E 018°05'0 0.0
2017-Aug-12 16:56N 59°20' E 018°05'1 1.1
2017-Aug-12 16:28N 59°19' E 018°06'2 3.8
2017-Aug-12 16:00N 59°19' E 018°09'2 3.6
2017-Aug-12 15:30N 59°19' E 018°06'0 0.5
2017-Aug-12 15:00N 59°19' E 018°06'2 4.2
2017-Aug-12 14:30N 59°21' E 018°09'2 3.2
2017-Aug-12 14:00N 59°19' E 018°08'2 3.9
2017-Aug-12 13:29N 59°20' E 018°05'2 4.2
2017-Aug-12 13:00N 59°19' E 018°08'2 3.9
2017-Aug-12 12:28N 59°20' E 018°05'0 0.5
2017-Aug-12 11:55N 59°20' E 018°05'1 1.4
2017-Aug-12 11:30N 59°19' E 018°06'2 4.2
2017-Aug-12 10:59N 59°21' E 018°09'2 3.6
2017-Aug-12 10:29N 59°19' E 018°07'1 3.1
2017-Aug-12 10:00N 59°20' E 018°05'2 4.3
2017-Aug-12 09:31N 59°19' E 018°09'2 3.4
2017-Aug-12 08:59N 59°19' E 018°06'0 0.6
2017-Aug-12 08:28N 59°19' E 018°06'2 4.5
2017-Aug-12 08:00N 59°21' E 018°09'2 3.4
2017-Aug-12 07:28N 59°19' E 018°07'1 2.7
2017-Aug-12 06:55N 59°20' E 018°05'0 0.0
2017-Aug-11 17:13N 59°20' E 018°05'0 0.0
2017-Aug-11 16:55N 59°20' E 018°05'2 4.8
2017-Aug-11 16:29N 59°19' E 018°09'2 3.3
2017-Aug-11 16:00N 59°19' E 018°06'0 0.2
2017-Aug-11 15:29N 59°19' E 018°06'2 4.0
2017-Aug-11 15:00N 59°19' E 018°09'0 0.3
2017-Aug-11 14:30N 59°19' E 018°10'2 1.6
2017-Aug-11 13:30N 59°19' E 018°07'1 2.8
2017-Aug-11 12:59N 59°20' E 018°05'0 0.5
2017-Aug-11 12:26N 59°20' E 018°05'0 0.0
2017-Aug-11 11:59N 59°20' E 018°05'2 3.2
2017-Aug-11 11:30N 59°19' E 018°07'0 0.6
2017-Aug-11 10:58N 59°19' E 018°07'1 3.2
2017-Aug-11 10:30N 59°20' E 018°05'2 4.8
2017-Aug-11 10:00N 59°19' E 018°09'2 3.6
2017-Aug-11 09:30N 59°19' E 018°06'1 1.2
2017-Aug-11 09:00N 59°19' E 018°07'1 2.1
2017-Aug-11 08:30N 59°19' E 018°09'2 4.2
2017-Aug-11 07:57N 59°20' E 018°05'0 0.5
2017-Aug-11 07:29N 59°20' E 018°05'0 0.1
2017-Aug-11 06:58N 59°20' E 018°05'0 0.0
2017-Aug-11 05:31N 59°20' E 018°05'0 0.1
2017-Aug-11 05:27N 59°20' E 018°05'0 0.0
2017-Aug-10 16:52N 59°20' E 018°05'2 5.2
2017-Aug-10 16:29N 59°19' E 018°09'1 2.9
2017-Aug-10 15:58N 59°19' E 018°06'0 0.7
2017-Aug-10 15:29N 59°19' E 018°06'2 3.8
2017-Aug-10 15:00N 59°20' E 018°09'0 0.7
2017-Aug-10 14:29N 59°19' E 018°10'2 3.9
2017-Aug-10 13:58N 59°19' E 018°06'1 1.5
2017-Aug-10 13:30N 59°19' E 018°07'1 2.7
2017-Aug-10 12:58N 59°20' E 018°05'0 0.5
2017-Aug-10 12:24N 59°20' E 018°05'0 0.0
2017-Aug-10 12:00N 59°20' E 018°05'2 3.1
2017-Aug-10 11:30N 59°19' E 018°08'0 0.1
2017-Aug-10 11:00N 59°19' E 018°07'2 3.5
2017-Aug-10 10:30N 59°20' E 018°05'2 4.7
2017-Aug-10 10:00N 59°19' E 018°09'2 3.5
2017-Aug-10 09:30N 59°19' E 018°06'0 0.5
2017-Aug-10 09:00N 59°19' E 018°06'2 3.4
2017-Aug-10 08:30N 59°19' E 018°09'2 4.2
2017-Aug-10 07:55N 59°20' E 018°05'0 0.0
2017-Aug-09 17:09N 59°20' E 018°05'0 0.0
2017-Aug-09 16:57N 59°20' E 018°05'2 3.7
2017-Aug-09 16:30N 59°19' E 018°08'1 2.3
2017-Aug-09 16:00N 59°19' E 018°06'0 0.2
2017-Aug-09 15:29N 59°19' E 018°06'2 4.0
2017-Aug-09 15:00N 59°20' E 018°09'1 1.0
2017-Aug-09 14:29N 59°19' E 018°10'2 4.3
2017-Aug-09 14:00N 59°19' E 018°06'1 1.0
2017-Aug-09 13:30N 59°19' E 018°06'1 2.3
2017-Aug-09 13:00N 59°20' E 018°05'0 0.5
2017-Aug-09 12:24N 59°20' E 018°05'0 0.0
2017-Aug-08 16:51N 59°20' E 018°05'2 4.8
2017-Aug-08 16:30N 59°19' E 018°08'1 2.3
2017-Aug-08 15:59N 59°19' E 018°06'0 0.6
2017-Aug-08 15:29N 59°19' E 018°06'2 3.8
2017-Aug-08 14:59N 59°20' E 018°09'0 0.9
2017-Aug-08 14:29N 59°19' E 018°10'2 4.1
2017-Aug-08 14:00N 59°19' E 018°06'1 1.1
2017-Aug-08 13:30N 59°19' E 018°07'1 2.8
2017-Aug-08 13:00N 59°20' E 018°05'0 0.3
2017-Aug-08 12:00N 59°20' E 018°05'2 3.1
2017-Aug-08 11:30N 59°19' E 018°07'0 0.0
2017-Aug-08 11:00N 59°19' E 018°07'1 2.6
2017-Aug-08 10:30N 59°20' E 018°05'2 4.1
2017-Aug-08 10:00N 59°19' E 018°09'2 3.8
2017-Aug-08 09:30N 59°19' E 018°06'1 1.3
2017-Aug-08 08:58N 59°19' E 018°07'1 2.8
2017-Aug-08 08:30N 59°19' E 018°09'  
Track history (hours):
 
Tides and Currents Weather Stations Pressure Air Temp Water Temp Dewpoint Dewpoint Depression Visibility Wind Speed Wind Dir Waves Ship Positions

Ballerina

Last reported at 2017-Aug-17 16:58 UTC. Time now 2017-Aug-17 17:26 UTC.
Position N 59°20' E 018°05'.

Type: Passenger vessel. MMSI: 265550720.

Date/timePositionNaut miles runAvg speedWind from/ knotsBaromVisibWave heightAir tempDewpointWater temp
2017-Aug-17 16:58N 59°20' E 018°05'2 3.6
2017-Aug-17 16:30N 59°19' E 018°08'1 2.2
2017-Aug-17 16:00N 59°19' E 018°06'0 0.6
2017-Aug-17 15:29N 59°19' E 018°06'2 3.6
2017-Aug-17 15:00N 59°20' E 018°10'0 0.9
2017-Aug-17 14:29N 59°19' E 018°10'2 3.9
2017-Aug-17 13:58N 59°19' E 018°06'1 1.4
2017-Aug-17 13:30N 59°19' E 018°06'1 2.2
2017-Aug-17 12:54N 59°20' E 018°05'0 0.6
2017-Aug-17 12:27N 59°20' E 018°05'0 0.0
2017-Aug-17 11:58N 59°20' E 018°05'1 3.1
2017-Aug-17 11:31N 59°19' E 018°07'0 0.2
2017-Aug-17 11:00N 59°19' E 018°07'1 2.1
2017-Aug-17 10:30N 59°19' E 018°06'2 3.7
2017-Aug-17 09:59N 59°19' E 018°09'2 3.9
2017-Aug-17 09:30N 59°19' E 018°06'0 0.9
2017-Aug-17 09:00N 59°19' E 018°06'1 2.9
2017-Aug-17 08:30N 59°19' E 018°09'2 4.3
2017-Aug-17 07:56N 59°20' E 018°05'0 0.0
2017-Aug-16 16:53N 59°20' E 018°05'2 4.6
2017-Aug-16 16:29N 59°19' E 018°08'1 2.7
2017-Aug-16 16:01N 59°19' E 018°06'0 0.2
2017-Aug-16 15:30N 59°19' E 018°06'2 4.0
2017-Aug-16 15:01N 59°19' E 018°10'0 0.1
2017-Aug-16 14:30N 59°19' E 018°10'2 3.9
2017-Aug-16 13:59N 59°19' E 018°06'1 1.5
2017-Aug-16 13:29N 59°19' E 018°07'1 2.8
2017-Aug-16 12:58N 59°20' E 018°05'0 0.5
2017-Aug-16 12:28N 59°20' E 018°05'0 0.0
2017-Aug-16 11:57N 59°20' E 018°05'1 3.3
2017-Aug-16 11:30N 59°19' E 018°07'0 0.1
2017-Aug-16 10:58N 59°19' E 018°07'2 3.7
2017-Aug-16 10:30N 59°20' E 018°05'2 4.5
2017-Aug-16 10:00N 59°19' E 018°09'2 3.1
2017-Aug-16 09:30N 59°19' E 018°06'0 0.5
2017-Aug-16 09:00N 59°19' E 018°06'2 3.7
2017-Aug-16 08:30N 59°19' E 018°09'2 4.1
2017-Aug-16 07:54N 59°20' E 018°05'0 0.6
2017-Aug-16 07:25N 59°20' E 018°05'0 0.0
2017-Aug-16 06:55N 59°20' E 018°05'0 0.0
2017-Aug-16 06:25N 59°20' E 018°05'0 0.0
2017-Aug-15 17:39N 59°20' E 018°05'0 0.0
2017-Aug-15 17:27N 59°20' E 018°05'0 0.0
2017-Aug-15 16:54N 59°20' E 018°05'2 4.4
2017-Aug-15 16:30N 59°19' E 018°08'1 2.4
2017-Aug-15 16:00N 59°19' E 018°06'0 0.3
2017-Aug-15 15:29N 59°19' E 018°06'2 3.8
2017-Aug-15 15:00N 59°20' E 018°09'0 0.7
2017-Aug-15 14:29N 59°19' E 018°10'2 4.0
2017-Aug-15 13:59N 59°19' E 018°06'1 1.2
2017-Aug-15 13:30N 59°19' E 018°06'1 2.6
2017-Aug-15 12:59N 59°20' E 018°05'0 0.5
2017-Aug-15 12:25N 59°20' E 018°05'0 0.0
2017-Aug-15 11:58N 59°20' E 018°05'2 3.2
2017-Aug-15 11:29N 59°19' E 018°07'0 0.0
2017-Aug-15 10:59N 59°19' E 018°07'2 3.5
2017-Aug-15 10:30N 59°20' E 018°05'2 4.8
2017-Aug-15 10:00N 59°19' E 018°09'2 3.4
2017-Aug-15 09:28N 59°19' E 018°06'0 1.1
2017-Aug-15 09:00N 59°19' E 018°06'1 2.8
2017-Aug-15 08:29N 59°19' E 018°09'2 4.7
2017-Aug-15 07:58N 59°20' E 018°05'0 0.4
2017-Aug-15 07:19N 59°20' E 018°05'0 0.1
2017-Aug-15 06:58N 59°20' E 018°05'0 0.0
2017-Aug-15 06:28N 59°20' E 018°05'0 0.0
2017-Aug-15 05:58N 59°20' E 018°05'0 0.0
2017-Aug-15 05:28N 59°20' E 018°05'0 0.0
2017-Aug-15 04:58N 59°20' E 018°05'0 0.0
2017-Aug-15 04:28N 59°20' E 018°05'0 0.0
2017-Aug-15 03:58N 59°20' E 018°05'0 0.0
2017-Aug-15 03:28N 59°20' E 018°05'0 0.0
2017-Aug-15 02:46N 59°20' E 018°05'0 0.0
2017-Aug-15 02:28N 59°20' E 018°05'0 0.0
2017-Aug-15 01:58N 59°20' E 018°05'0 0.0
2017-Aug-15 01:28N 59°20' E 018°05'0 0.0
2017-Aug-15 00:58N 59°20' E 018°05'0 0.0
2017-Aug-15 00:28N 59°20' E 018°05'0 0.0
2017-Aug-14 23:58N 59°20' E 018°05'0 0.0
2017-Aug-14 23:28N 59°20' E 018°05'0 0.0
2017-Aug-14 22:58N 59°20' E 018°05'0 0.0
2017-Aug-14 22:28N 59°20' E 018°05'0 0.0
2017-Aug-14 21:58N 59°20' E 018°05'0 0.0
2017-Aug-14 21:28N 59°20' E 018°05'0 0.0
2017-Aug-14 20:58N 59°20' E 018°05'0 0.0
2017-Aug-14 20:28N 59°20' E 018°05'0 0.0
2017-Aug-14 19:58N 59°20' E 018°05'0 0.0
2017-Aug-14 19:28N 59°20' E 018°05'0 0.0
2017-Aug-14 18:58N 59°20' E 018°05'0 0.0
2017-Aug-14 18:28N 59°20' E 018°05'0 0.0
2017-Aug-14 17:52N 59°20' E 018°05'0 0.0
2017-Aug-14 17:28N 59°20' E 018°05'0 0.0
2017-Aug-14 16:58N 59°20' E 018°05'2 3.2
2017-Aug-14 16:30N 59°19' E 018°08'1 2.0
2017-Aug-14 16:00N 59°19' E 018°06'0 0.2
2017-Aug-14 15:30N 59°19' E 018°06'2 3.8
2017-Aug-14 15:00N 59°20' E 018°09'1 1.0
2017-Aug-14 14:29N 59°19' E 018°10'2 4.1
2017-Aug-14 13:59N 59°19' E 018°06'1 1.1
2017-Aug-14 13:30N 59°19' E 018°06'1 2.3
2017-Aug-14 12:58N 59°20' E 018°05'0 0.5
2017-Aug-14 12:27N 59°20' E 018°05'0 0.0
2017-Aug-14 11:59N 59°20' E 018°05'2 3.2
2017-Aug-14 11:30N 59°19' E 018°07'0 0.1
2017-Aug-14 10:59N 59°19' E 018°07'2 3.1
2017-Aug-14 10:29N 59°20' E 018°05'2 4.5
2017-Aug-14 10:00N 59°19' E 018°09'2 3.3
2017-Aug-14 09:30N 59°19' E 018°06'1 1.2
2017-Aug-14 08:58N 59°19' E 018°07'1 2.8
2017-Aug-14 08:30N 59°19' E 018°09'2 2.0
2017-Aug-14 07:19N 59°20' E 018°05'0 0.8
2017-Aug-14 06:58N 59°20' E 018°05'0 0.0
2017-Aug-14 06:26N 59°20' E 018°05'0 0.0
2017-Aug-14 05:56N 59°20' E 018°05'0 0.0
2017-Aug-14 05:26N 59°20' E 018°05'0 0.0
2017-Aug-14 04:50N 59°20' E 018°05'0 0.0
2017-Aug-14 04:26N 59°20' E 018°05'0 0.0
2017-Aug-14 03:56N 59°20' E 018°05'0 0.0
2017-Aug-14 03:26N 59°20' E 018°05'0 0.0
2017-Aug-14 02:56N 59°20' E 018°05'0 0.0
2017-Aug-14 02:26N 59°20' E 018°05'0 0.0
2017-Aug-14 01:56N 59°20' E 018°05'0 0.0
2017-Aug-14 01:26N 59°20' E 018°05'0 0.0
2017-Aug-14 00:56N 59°20' E 018°05'0 0.0
2017-Aug-14 00:26N 59°20' E 018°05'0 0.0
2017-Aug-13 23:56N 59°20' E 018°05'0 0.0
2017-Aug-13 23:26N 59°20' E 018°05'0 0.0
2017-Aug-13 22:50N 59°20' E 018°05'0 0.0
2017-Aug-13 22:26N 59°20' E 018°05'0 0.0
2017-Aug-13 21:50N 59°20' E 018°05'0 0.0
2017-Aug-13 21:26N 59°20' E 018°05'0 0.0
2017-Aug-13 20:56N 59°20' E 018°05'0 0.0
2017-Aug-13 20:26N 59°20' E 018°05'0 0.0
2017-Aug-13 19:50N 59°20' E 018°05'0 0.0
2017-Aug-13 19:20N 59°20' E 018°05'0 0.0
2017-Aug-13 18:56N 59°20' E 018°05'0 0.0
2017-Aug-13 18:26N 59°20' E 018°05'0 0.0
2017-Aug-13 17:56N 59°20' E 018°05'0 0.0
2017-Aug-13 17:14N 59°20' E 018°05'0 0.0
2017-Aug-13 16:56N 59°20' E 018°05'0 0.7
2017-Aug-13 16:29N 59°20' E 018°05'2 4.3
2017-Aug-13 15:59N 59°19' E 018°09'2 3.8
2017-Aug-13 15:28N 59°19' E 018°06'0 0.8
2017-Aug-13 15:00N 59°19' E 018°06'2 3.6
2017-Aug-13 14:24N 59°21' E 018°09'2 3.9
2017-Aug-13 14:00N 59°19' E 018°08'2 3.9
2017-Aug-13 13:29N 59°20' E 018°05'2 4.0
2017-Aug-13 12:58N 59°19' E 018°08'2 4.3
2017-Aug-13 12:30N 59°20' E 018°05'0 0.5
2017-Aug-13 11:59N 59°20' E 018°05'1 1.3
2017-Aug-13 11:30N 59°19' E 018°06'2 4.2
2017-Aug-13 10:59N 59°21' E 018°09'2 3.4
2017-Aug-13 10:28N 59°19' E 018°07'2 3.3
2017-Aug-13 09:59N 59°20' E 018°05'2 4.7
2017-Aug-13 09:29N 59°19' E 018°09'2 3.8
2017-Aug-13 09:00N 59°19' E 018°06'0 0.6
2017-Aug-13 08:30N 59°19' E 018°06'2 4.3
2017-Aug-13 08:01N 59°21' E 018°09'2 3.3
2017-Aug-13 07:30N 59°19' E 018°08'2 3.1
2017-Aug-13 06:59N 59°20' E 018°05'0 0.0
2017-Aug-13 06:25N 59°20' E 018°05'0 0.0
2017-Aug-12 17:02N 59°20' E 018°05'0 0.0
2017-Aug-12 16:56N 59°20' E 018°05'1 1.1
2017-Aug-12 16:28N 59°19' E 018°06'2 3.8
2017-Aug-12 16:00N 59°19' E 018°09'2 3.6
2017-Aug-12 15:30N 59°19' E 018°06'0 0.5
2017-Aug-12 15:00N 59°19' E 018°06'2 4.2
2017-Aug-12 14:30N 59°21' E 018°09'2 3.2
2017-Aug-12 14:00N 59°19' E 018°08'2 3.9
2017-Aug-12 13:29N 59°20' E 018°05'2 4.2
2017-Aug-12 13:00N 59°19' E 018°08'2 3.9
2017-Aug-12 12:28N 59°20' E 018°05'0 0.5
2017-Aug-12 11:55N 59°20' E 018°05'1 1.4
2017-Aug-12 11:30N 59°19' E 018°06'2 4.2
2017-Aug-12 10:59N 59°21' E 018°09'2 3.6
2017-Aug-12 10:29N 59°19' E 018°07'1 3.1
2017-Aug-12 10:00N 59°20' E 018°05'2 4.3
2017-Aug-12 09:31N 59°19' E 018°09'2 3.4
2017-Aug-12 08:59N 59°19' E 018°06'0 0.6
2017-Aug-12 08:28N 59°19' E 018°06'2 4.5
2017-Aug-12 08:00N 59°21' E 018°09'2 3.4
2017-Aug-12 07:28N 59°19' E 018°07'1 2.7
2017-Aug-12 06:55N 59°20' E 018°05'0 0.0
2017-Aug-11 17:13N 59°20' E 018°05'0 0.0
2017-Aug-11 16:55N 59°20' E 018°05'2 4.8
2017-Aug-11 16:29N 59°19' E 018°09'2 3.3
2017-Aug-11 16:00N 59°19' E 018°06'0 0.2
2017-Aug-11 15:29N 59°19' E 018°06'2 4.0
2017-Aug-11 15:00N 59°19' E 018°09'0 0.3
2017-Aug-11 14:30N 59°19' E 018°10'2 1.6
2017-Aug-11 13:30N 59°19' E 018°07'1 2.8
2017-Aug-11 12:59N 59°20' E 018°05'0 0.5
2017-Aug-11 12:26N 59°20' E 018°05'0 0.0
2017-Aug-11 11:59N 59°20' E 018°05'2 3.2
2017-Aug-11 11:30N 59°19' E 018°07'0 0.6
2017-Aug-11 10:58N 59°19' E 018°07'1 3.2
2017-Aug-11 10:30N 59°20' E 018°05'2 4.8
2017-Aug-11 10:00N 59°19' E 018°09'2 3.6
2017-Aug-11 09:30N 59°19' E 018°06'1 1.2
2017-Aug-11 09:00N 59°19' E 018°07'1 2.1
2017-Aug-11 08:30N 59°19' E 018°09'2 4.2
2017-Aug-11 07:57N 59°20' E 018°05'0 0.5
2017-Aug-11 07:29N 59°20' E 018°05'0 0.1
2017-Aug-11 06:58N 59°20' E 018°05'0 0.0
2017-Aug-11 05:31N 59°20' E 018°05'0 0.1
2017-Aug-11 05:27N 59°20' E 018°05'0 0.0
2017-Aug-10 16:52N 59°20' E 018°05'2 5.2
2017-Aug-10 16:29N 59°19' E 018°09'1 2.9
2017-Aug-10 15:58N 59°19' E 018°06'0 0.7
2017-Aug-10 15:29N 59°19' E 018°06'2 3.8
2017-Aug-10 15:00N 59°20' E 018°09'0 0.7
2017-Aug-10 14:29N 59°19' E 018°10'2 3.9
2017-Aug-10 13:58N 59°19' E 018°06'1 1.5
2017-Aug-10 13:30N 59°19' E 018°07'1 2.7
2017-Aug-10 12:58N 59°20' E 018°05'0 0.5
2017-Aug-10 12:24N 59°20' E 018°05'0 0.0
2017-Aug-10 12:00N 59°20' E 018°05'2 3.1
2017-Aug-10 11:30N 59°19' E 018°08'0 0.1
2017-Aug-10 11:00N 59°19' E 018°07'2 3.5
2017-Aug-10 10:30N 59°20' E 018°05'2 4.7
2017-Aug-10 10:00N 59°19' E 018°09'2 3.5
2017-Aug-10 09:30N 59°19' E 018°06'0 0.5
2017-Aug-10 09:00N 59°19' E 018°06'2 3.4
2017-Aug-10 08:30N 59°19' E 018°09'2 4.2
2017-Aug-10 07:55N 59°20' E 018°05'0 0.0
2017-Aug-09 17:09N 59°20' E 018°05'0 0.0
2017-Aug-09 16:57N 59°20' E 018°05'2 3.7
2017-Aug-09 16:30N 59°19' E 018°08'1 2.3
2017-Aug-09 16:00N 59°19' E 018°06'0 0.2
2017-Aug-09 15:29N 59°19' E 018°06'2 4.0
2017-Aug-09 15:00N 59°20' E 018°09'1 1.0
2017-Aug-09 14:29N 59°19' E 018°10'2 4.3
2017-Aug-09 14:00N 59°19' E 018°06'1 1.0
2017-Aug-09 13:30N 59°19' E 018°06'1 2.3
2017-Aug-09 13:00N 59°20' E 018°05'0 0.5
2017-Aug-09 12:24N 59°20' E 018°05'0 0.0
2017-Aug-08 16:51N 59°20' E 018°05'2 4.8
2017-Aug-08 16:30N 59°19' E 018°08'1 2.3
2017-Aug-08 15:59N 59°19' E 018°06'0 0.6
2017-Aug-08 15:29N 59°19' E 018°06'2 3.8
2017-Aug-08 14:59N 59°20' E 018°09'0 0.9
2017-Aug-08 14:29N 59°19' E 018°10'2 4.1
2017-Aug-08 14:00N 59°19' E 018°06'1 1.1
2017-Aug-08 13:30N 59°19' E 018°07'1 2.8
2017-Aug-08 13:00N 59°20' E 018°05'0 0.3
2017-Aug-08 12:00N 59°20' E 018°05'2 3.1
2017-Aug-08 11:30N 59°19' E 018°07'0 0.0
2017-Aug-08 11:00N 59°19' E 018°07'1 2.6
2017-Aug-08 10:30N 59°20' E 018°05'2 4.1
2017-Aug-08 10:00N 59°19' E 018°09'2 3.8
2017-Aug-08 09:30N 59°19' E 018°06'1 1.3
2017-Aug-08 08:58N 59°19' E 018°07'1 2.8
2017-Aug-08 08:30N 59°19' E 018°09'  

Dump ship's entire track history